ANZ174 YMML-YSSY
Flight info
| Callsign | ANZ174 |
|---|---|
| Flight time | N/A |
| Altitude | 39000 |
| Route | DCT ML H129 DOSEL Y59 RIVET RIVET4 |
| Aircraft | B77W/H-SDE1E2E3FGHIJ2J3J4J5M1RWXY/LB1D1 |
Departure
| Time | 2026-05-04 08:24 |
|---|---|
| Airport | Melbourne Airport (YMML) |
Arrival
| Time | N/A |
|---|---|
| Airport | Sydney Kingsford Smith International Airport (YSSY) |
| Time | Latitude | Longitude | Altitude | Speed | Heading |
|---|---|---|---|---|---|
| 2026-05-04 07:58 | -37.67286 | 144.84495 | 388 ft | 0 kts | 171° |
| 2026-05-04 08:02 | -37.67284 | 144.84494 | 388 ft | 1 kts | 171° |
| 2026-05-04 08:02 | -37.67282 | 144.84494 | 388 ft | 0 kts | 171° |
| 2026-05-04 08:11 | -37.67270 | 144.84491 | 388 ft | 3 kts | 169° |
| 2026-05-04 08:11 | -37.67221 | 144.84488 | 389 ft | 3 kts | 231° |
| 2026-05-04 08:11 | -37.67213 | 144.84512 | 390 ft | 3 kts | 264° |
| 2026-05-04 08:12 | -37.67210 | 144.84539 | 390 ft | 3 kts | 262° |
| 2026-05-04 08:12 | -37.67206 | 144.84572 | 391 ft | 3 kts | 262° |
| 2026-05-04 08:12 | -37.67204 | 144.84590 | 391 ft | 1 kts | 262° |
| 2026-05-04 08:16 | -37.67218 | 144.84180 | 385 ft | 7 kts | 264° |
| 2026-05-04 08:16 | -37.67221 | 144.84148 | 384 ft | 14 kts | 262° |
| 2026-05-04 08:16 | -37.67295 | 144.84077 | 381 ft | 16 kts | 180° |
| 2026-05-04 08:17 | -37.67407 | 144.84098 | 379 ft | 16 kts | 172° |
| 2026-05-04 08:17 | -37.67530 | 144.84121 | 377 ft | 19 kts | 171° |
| 2026-05-04 08:17 | -37.67671 | 144.84147 | 372 ft | 22 kts | 171° |
| 2026-05-04 08:17 | -37.67764 | 144.84165 | 369 ft | 11 kts | 171° |
| 2026-05-04 08:19 | -37.67862 | 144.84141 | 369 ft | 0 kts | 240° |
| 2026-05-04 08:19 | -37.67875 | 144.84074 | 364 ft | 14 kts | 262° |
| 2026-05-04 08:20 | -37.67859 | 144.83978 | 366 ft | 10 kts | 319° |
| 2026-05-04 08:20 | -37.67805 | 144.83953 | 368 ft | 0 kts | 353° |
| 2026-05-04 08:21 | -37.67783 | 144.83950 | 364 ft | 13 kts | 352° |
| 2026-05-04 08:21 | -37.67561 | 144.83909 | 373 ft | 62 kts | 352° |
| 2026-05-04 08:22 | -37.66876 | 144.83782 | 396 ft | 136 kts | 352° |
| 2026-05-04 08:22 | -37.65800 | 144.83563 | 753 ft | 167 kts | 352° |
| 2026-05-04 08:24 | -37.56148 | 144.84047 | 5849 ft | 263 kts | 19° |
| 2026-05-04 08:24 | -37.54503 | 144.85056 | 6750 ft | 269 kts | 19° |
| 2026-05-04 08:24 | -37.52822 | 144.86093 | 7687 ft | 272 kts | 19° |
| 2026-05-04 08:24 | -37.51099 | 144.87147 | 8594 ft | 278 kts | 19° |
| 2026-05-04 08:25 | -37.49339 | 144.88220 | 9488 ft | 284 kts | 19° |
| 2026-05-04 08:25 | -37.47539 | 144.89312 | 10306 ft | 291 kts | 19° |
| 2026-05-04 08:25 | -37.45646 | 144.90453 | 10726 ft | 316 kts | 20° |
| 2026-05-04 08:25 | -37.43641 | 144.91870 | 10910 ft | 348 kts | 34° |
| 2026-05-04 08:26 | -37.42008 | 144.94279 | 11355 ft | 372 kts | 51° |
| 2026-05-04 08:27 | -37.31043 | 145.13962 | 18640 ft | 412 kts | 51° |
| 2026-05-04 08:28 | -37.29372 | 145.16905 | 19571 ft | 417 kts | 51° |
| 2026-05-04 08:28 | -37.27677 | 145.19886 | 20512 ft | 421 kts | 50° |
| 2026-05-04 08:28 | -37.25969 | 145.22889 | 21417 ft | 426 kts | 50° |
| 2026-05-04 08:28 | -37.24241 | 145.25926 | 22312 ft | 431 kts | 50° |
| 2026-05-04 08:29 | -37.22488 | 145.29004 | 23202 ft | 436 kts | 50° |
| 2026-05-04 08:29 | -37.20734 | 145.32079 | 23864 ft | 441 kts | 50° |
| 2026-05-04 08:29 | -37.18947 | 145.35211 | 23964 ft | 444 kts | 49° |
| 2026-05-04 08:31 | -37.06239 | 145.57367 | 26711 ft | 457 kts | 46° |
| 2026-05-04 08:33 | -36.92718 | 145.80774 | 30631 ft | 490 kts | 44° |
| 2026-05-04 08:33 | -36.90717 | 145.84234 | 31091 ft | 492 kts | 44° |
| 2026-05-04 08:35 | -36.76596 | 146.08528 | 34291 ft | 498 kts | 45° |
| 2026-05-04 08:35 | -36.74554 | 146.12022 | 34640 ft | 500 kts | 45° |
| 2026-05-04 08:35 | -36.72501 | 146.15526 | 34907 ft | 503 kts | 45° |
| 2026-05-04 08:35 | -36.70431 | 146.19060 | 35260 ft | 504 kts | 45° |
| 2026-05-04 08:37 | -36.58004 | 146.40211 | 37241 ft | 510 kts | 46° |
| 2026-05-04 08:37 | -36.55913 | 146.43757 | 37594 ft | 510 kts | 46° |
| 2026-05-04 08:37 | -36.53813 | 146.47317 | 37954 ft | 510 kts | 46° |
| 2026-05-04 08:38 | -36.51709 | 146.50878 | 38275 ft | 511 kts | 46° |
| 2026-05-04 08:38 | -36.49607 | 146.54432 | 38589 ft | 511 kts | 46° |
| 2026-05-04 08:38 | -36.47489 | 146.58007 | 38759 ft | 514 kts | 46° |
| 2026-05-04 08:40 | -36.32616 | 146.83029 | 39028 ft | 510 kts | 46° |
| 2026-05-04 08:40 | -36.30509 | 146.86556 | 39015 ft | 509 kts | 46° |
| 2026-05-04 08:41 | -36.26303 | 146.93588 | 39033 ft | 507 kts | 46° |
| 2026-05-04 08:41 | -36.22195 | 147.00443 | 39035 ft | 508 kts | 46° |
| 2026-05-04 08:42 | -36.17985 | 147.07455 | 39031 ft | 508 kts | 46° |
| 2026-05-04 08:42 | -36.13785 | 147.14434 | 39043 ft | 508 kts | 46° |
| 2026-05-04 08:43 | -36.09561 | 147.21441 | 39043 ft | 509 kts | 46° |
| 2026-05-04 08:43 | -36.05326 | 147.28456 | 39039 ft | 509 kts | 45° |
| 2026-05-04 08:44 | -36.01088 | 147.35462 | 39047 ft | 509 kts | 45° |
| 2026-05-04 08:46 | -35.84116 | 147.63381 | 39062 ft | 510 kts | 45° |
| 2026-05-04 08:46 | -35.79850 | 147.70356 | 39050 ft | 509 kts | 45° |
| 2026-05-04 08:47 | -35.75611 | 147.77273 | 39064 ft | 509 kts | 45° |
| 2026-05-04 08:47 | -35.71341 | 147.84228 | 39074 ft | 509 kts | 45° |
| 2026-05-04 08:48 | -35.67065 | 147.91179 | 39074 ft | 509 kts | 45° |
| 2026-05-04 08:48 | -35.62791 | 147.98117 | 39073 ft | 509 kts | 45° |
| 2026-05-04 08:49 | -35.58645 | 148.04832 | 39083 ft | 509 kts | 45° |
| 2026-05-04 08:50 | -35.43639 | 148.29032 | 39092 ft | 508 kts | 45° |
| 2026-05-04 08:51 | -35.39344 | 148.35916 | 39069 ft | 509 kts | 45° |
| 2026-05-04 08:51 | -35.35071 | 148.42743 | 39068 ft | 509 kts | 44° |
| 2026-05-04 08:52 | -35.30766 | 148.49613 | 39069 ft | 509 kts | 45° |
| 2026-05-04 08:52 | -35.26451 | 148.56488 | 39075 ft | 508 kts | 44° |
| 2026-05-04 08:54 | -35.08457 | 148.82508 | 39077 ft | 481 kts | 24° |
| 2026-05-04 08:55 | -35.05548 | 148.84430 | 39047 ft | 470 kts | 14° |
| 2026-05-04 08:55 | -35.02502 | 148.85727 | 39072 ft | 458 kts | 5° |
| 2026-05-04 08:55 | -34.96324 | 148.86655 | 39082 ft | 444 kts | 354° |
| 2026-05-04 08:57 | -34.75212 | 148.87058 | 36773 ft | 418 kts | 352° |